sensor_id;sensor_type;location;lat;lon;timestamp;P1;durP1;ratioP1;P2;durP2;ratioP2
64688;SDS011;62504;46.070;14.492;2023-11-19T00:02:19;23.60;;;10.80;;
64688;SDS011;62504;46.070;14.492;2023-11-19T00:04:45;24.17;;;11.37;;
64688;SDS011;62504;46.070;14.492;2023-11-19T00:07:11;25.13;;;11.40;;
64688;SDS011;62504;46.070;14.492;2023-11-19T00:09:39;26.70;;;11.00;;
64688;SDS011;62504;46.070;14.492;2023-11-19T00:12:05;25.67;;;11.23;;
64688;SDS011;62504;46.070;14.492;2023-11-19T00:14:32;25.63;;;10.97;;
64688;SDS011;62504;46.070;14.492;2023-11-19T00:16:58;27.57;;;12.13;;
64688;SDS011;62504;46.070;14.492;2023-11-19T00:19:24;28.37;;;12.33;;
64688;SDS011;62504;46.070;14.492;2023-11-19T00:21:49;25.87;;;12.10;;
64688;SDS011;62504;46.070;14.492;2023-11-19T00:24:15;27.43;;;11.77;;
64688;SDS011;62504;46.070;14.492;2023-11-19T00:26:42;26.47;;;12.40;;
64688;SDS011;62504;46.070;14.492;2023-11-19T00:29:08;29.10;;;12.20;;
64688;SDS011;62504;46.070;14.492;2023-11-19T00:31:34;24.53;;;11.07;;
64688;SDS011;62504;46.070;14.492;2023-11-19T00:34:00;31.83;;;14.37;;
64688;SDS011;62504;46.070;14.492;2023-11-19T00:36:26;31.17;;;13.63;;
64688;SDS011;62504;46.070;14.492;2023-11-19T00:38:53;28.37;;;13.67;;
64688;SDS011;62504;46.070;14.492;2023-11-19T00:41:19;35.37;;;14.47;;
64688;SDS011;62504;46.070;14.492;2023-11-19T00:43:45;32.87;;;14.73;;
64688;SDS011;62504;46.070;14.492;2023-11-19T00:46:10;32.70;;;14.13;;
64688;SDS011;62504;46.070;14.492;2023-11-19T00:48:37;34.50;;;14.20;;
64688;SDS011;62504;46.070;14.492;2023-11-19T00:51:03;32.47;;;14.17;;
64688;SDS011;62504;46.070;14.492;2023-11-19T00:53:29;31.13;;;14.10;;
64688;SDS011;62504;46.070;14.492;2023-11-19T00:55:55;33.60;;;14.17;;
64688;SDS011;62504;46.070;14.492;2023-11-19T00:58:21;32.60;;;14.30;;
64688;SDS011;62504;46.070;14.492;2023-11-19T01:00:47;32.37;;;14.37;;
64688;SDS011;62504;46.070;14.492;2023-11-19T01:03:12;34.77;;;14.10;;
64688;SDS011;62504;46.070;14.492;2023-11-19T01:05:39;30.40;;;12.60;;
64688;SDS011;62504;46.070;14.492;2023-11-19T01:08:05;29.73;;;13.57;;
64688;SDS011;62504;46.070;14.492;2023-11-19T01:10:31;27.93;;;12.77;;
64688;SDS011;62504;46.070;14.492;2023-11-19T01:12:57;29.87;;;12.23;;
64688;SDS011;62504;46.070;14.492;2023-11-19T01:15:23;24.90;;;12.03;;
64688;SDS011;62504;46.070;14.492;2023-11-19T01:17:49;25.57;;;11.43;;
64688;SDS011;62504;46.070;14.492;2023-11-19T01:20:14;28.30;;;12.27;;
64688;SDS011;62504;46.070;14.492;2023-11-19T01:22:40;29.83;;;12.60;;
64688;SDS011;62504;46.070;14.492;2023-11-19T01:25:06;30.33;;;12.37;;
64688;SDS011;62504;46.070;14.492;2023-11-19T01:27:32;26.67;;;11.97;;
64688;SDS011;62504;46.070;14.492;2023-11-19T01:30:02;28.87;;;12.07;;
64688;SDS011;62504;46.070;14.492;2023-11-19T01:32:28;25.07;;;12.07;;
64688;SDS011;62504;46.070;14.492;2023-11-19T01:34:54;28.07;;;12.13;;
64688;SDS011;62504;46.070;14.492;2023-11-19T01:37:20;30.87;;;12.53;;
64688;SDS011;62504;46.070;14.492;2023-11-19T01:39:45;28.50;;;12.50;;
64688;SDS011;62504;46.070;14.492;2023-11-19T01:42:11;23.53;;;11.30;;
64688;SDS011;62504;46.070;14.492;2023-11-19T01:44:37;23.60;;;11.80;;
64688;SDS011;62504;46.070;14.492;2023-11-19T01:47:03;24.73;;;11.03;;
64688;SDS011;62504;46.070;14.492;2023-11-19T01:49:29;23.57;;;10.87;;
64688;SDS011;62504;46.070;14.492;2023-11-19T01:51:57;22.77;;;11.50;;
64688;SDS011;62504;46.070;14.492;2023-11-19T01:54:23;23.03;;;10.50;;
64688;SDS011;62504;46.070;14.492;2023-11-19T01:56:49;22.07;;;10.83;;
64688;SDS011;62504;46.070;14.492;2023-11-19T01:59:15;22.10;;;10.00;;
64688;SDS011;62504;46.070;14.492;2023-11-19T02:01:41;24.87;;;10.93;;
64688;SDS011;62504;46.070;14.492;2023-11-19T02:04:08;22.27;;;10.57;;
64688;SDS011;62504;46.070;14.492;2023-11-19T02:06:34;22.97;;;10.90;;
64688;SDS011;62504;46.070;14.492;2023-11-19T02:09:05;22.97;;;10.47;;
64688;SDS011;62504;46.070;14.492;2023-11-19T02:11:33;23.90;;;10.10;;
64688;SDS011;62504;46.070;14.492;2023-11-19T02:14:00;25.80;;;10.97;;
64688;SDS011;62504;46.070;14.492;2023-11-19T02:16:26;20.90;;;9.73;;
64688;SDS011;62504;46.070;14.492;2023-11-19T02:18:51;22.37;;;10.40;;
64688;SDS011;62504;46.070;14.492;2023-11-19T02:21:17;23.47;;;10.57;;
64688;SDS011;62504;46.070;14.492;2023-11-19T02:23:43;20.33;;;9.30;;
64688;SDS011;62504;46.070;14.492;2023-11-19T02:28:45;20.63;;;10.13;;
64688;SDS011;62504;46.070;14.492;2023-11-19T02:31:11;21.20;;;9.93;;
64688;SDS011;62504;46.070;14.492;2023-11-19T02:33:37;23.03;;;10.93;;
64688;SDS011;62504;46.070;14.492;2023-11-19T02:36:06;25.37;;;10.23;;
64688;SDS011;62504;46.070;14.492;2023-11-19T02:38:33;23.07;;;10.30;;
64688;SDS011;62504;46.070;14.492;2023-11-19T02:41:02;19.33;;;9.57;;
64688;SDS011;62504;46.070;14.492;2023-11-19T02:43:31;20.87;;;9.90;;
64688;SDS011;62504;46.070;14.492;2023-11-19T02:46:03;23.33;;;10.67;;
64688;SDS011;62504;46.070;14.492;2023-11-19T02:48:32;22.93;;;10.57;;
64688;SDS011;62504;46.070;14.492;2023-11-19T02:51:00;21.83;;;10.40;;
64688;SDS011;62504;46.070;14.492;2023-11-19T02:53:30;19.77;;;10.17;;
64688;SDS011;62504;46.070;14.492;2023-11-19T02:55:55;22.37;;;10.43;;
64688;SDS011;62504;46.070;14.492;2023-11-19T02:58:27;22.47;;;10.50;;
64688;SDS011;62504;46.070;14.492;2023-11-19T03:00:54;19.00;;;9.40;;
64688;SDS011;62504;46.070;14.492;2023-11-19T03:03:26;19.53;;;9.07;;
64688;SDS011;62504;46.070;14.492;2023-11-19T03:06:04;22.80;;;10.10;;
64688;SDS011;62504;46.070;14.492;2023-11-19T03:08:29;20.13;;;9.90;;
64688;SDS011;62504;46.070;14.492;2023-11-19T03:10:55;20.13;;;9.87;;
64688;SDS011;62504;46.070;14.492;2023-11-19T03:13:21;21.70;;;9.23;;
64688;SDS011;62504;46.070;14.492;2023-11-19T03:15:47;21.50;;;10.00;;
64688;SDS011;62504;46.070;14.492;2023-11-19T03:18:12;23.03;;;9.90;;
64688;SDS011;62504;46.070;14.492;2023-11-19T03:20:38;21.50;;;9.37;;
64688;SDS011;62504;46.070;14.492;2023-11-19T03:23:04;20.57;;;9.97;;
64688;SDS011;62504;46.070;14.492;2023-11-19T03:25:31;21.27;;;10.37;;
64688;SDS011;62504;46.070;14.492;2023-11-19T03:28:00;21.40;;;9.43;;
64688;SDS011;62504;46.070;14.492;2023-11-19T03:30:27;23.50;;;9.97;;
64688;SDS011;62504;46.070;14.492;2023-11-19T03:32:54;21.60;;;9.93;;
64688;SDS011;62504;46.070;14.492;2023-11-19T03:35:20;21.20;;;9.73;;
64688;SDS011;62504;46.070;14.492;2023-11-19T03:37:46;17.60;;;9.47;;
64688;SDS011;62504;46.070;14.492;2023-11-19T03:40:11;22.83;;;10.07;;
64688;SDS011;62504;46.070;14.492;2023-11-19T03:42:37;20.80;;;10.00;;
64688;SDS011;62504;46.070;14.492;2023-11-19T03:45:05;21.73;;;9.97;;
64688;SDS011;62504;46.070;14.492;2023-11-19T03:47:33;22.57;;;9.47;;
64688;SDS011;62504;46.070;14.492;2023-11-19T03:49:59;23.90;;;9.50;;
64688;SDS011;62504;46.070;14.492;2023-11-19T03:52:25;21.63;;;9.80;;
64688;SDS011;62504;46.070;14.492;2023-11-19T03:54:52;19.43;;;9.47;;
64688;SDS011;62504;46.070;14.492;2023-11-19T03:57:19;21.50;;;9.90;;
64688;SDS011;62504;46.070;14.492;2023-11-19T03:59:45;21.53;;;9.83;;
64688;SDS011;62504;46.070;14.492;2023-11-19T04:02:10;21.50;;;9.80;;
64688;SDS011;62504;46.070;14.492;2023-11-19T04:04:36;23.53;;;9.80;;
64688;SDS011;62504;46.070;14.492;2023-11-19T04:07:03;20.13;;;9.10;;
64688;SDS011;62504;46.070;14.492;2023-11-19T04:09:30;22.00;;;9.43;;
64688;SDS011;62504;46.070;14.492;2023-11-19T04:11:57;18.70;;;9.20;;
64688;SDS011;62504;46.070;14.492;2023-11-19T04:14:23;20.87;;;9.77;;
64688;SDS011;62504;46.070;14.492;2023-11-19T04:16:49;19.37;;;9.43;;
64688;SDS011;62504;46.070;14.492;2023-11-19T04:19:16;17.87;;;8.73;;
64688;SDS011;62504;46.070;14.492;2023-11-19T04:21:41;17.63;;;9.40;;
64688;SDS011;62504;46.070;14.492;2023-11-19T04:24:10;20.17;;;9.43;;
64688;SDS011;62504;46.070;14.492;2023-11-19T04:26:42;21.00;;;10.03;;
64688;SDS011;62504;46.070;14.492;2023-11-19T04:29:11;19.73;;;9.33;;
64688;SDS011;62504;46.070;14.492;2023-11-19T04:31:37;20.00;;;9.20;;
64688;SDS011;62504;46.070;14.492;2023-11-19T04:34:04;18.00;;;9.20;;
64688;SDS011;62504;46.070;14.492;2023-11-19T04:36:31;22.87;;;10.10;;
64688;SDS011;62504;46.070;14.492;2023-11-19T04:38:58;19.30;;;9.00;;
64688;SDS011;62504;46.070;14.492;2023-11-19T04:41:24;18.03;;;8.53;;
64688;SDS011;62504;46.070;14.492;2023-11-19T04:43:50;20.33;;;8.80;;
64688;SDS011;62504;46.070;14.492;2023-11-19T04:46:16;19.17;;;8.60;;
64688;SDS011;62504;46.070;14.492;2023-11-19T04:48:42;18.63;;;8.90;;
64688;SDS011;62504;46.070;14.492;2023-11-19T04:51:07;22.63;;;9.00;;
64688;SDS011;62504;46.070;14.492;2023-11-19T04:53:36;22.27;;;9.50;;
64688;SDS011;62504;46.070;14.492;2023-11-19T04:56:07;20.00;;;9.20;;
64688;SDS011;62504;46.070;14.492;2023-11-19T04:58:36;22.03;;;10.10;;
64688;SDS011;62504;46.070;14.492;2023-11-19T05:01:02;16.77;;;8.77;;
64688;SDS011;62504;46.070;14.492;2023-11-19T05:03:29;21.40;;;9.17;;
64688;SDS011;62504;46.070;14.492;2023-11-19T05:05:56;20.40;;;9.53;;
64688;SDS011;62504;46.070;14.492;2023-11-19T05:08:22;21.20;;;8.77;;
64688;SDS011;62504;46.070;14.492;2023-11-19T05:10:47;18.30;;;8.77;;
64688;SDS011;62504;46.070;14.492;2023-11-19T05:13:13;18.13;;;9.20;;
64688;SDS011;62504;46.070;14.492;2023-11-19T05:15:40;22.10;;;10.00;;
64688;SDS011;62504;46.070;14.492;2023-11-19T05:18:05;18.03;;;9.57;;
64688;SDS011;62504;46.070;14.492;2023-11-19T05:20:31;22.10;;;9.43;;
64688;SDS011;62504;46.070;14.492;2023-11-19T05:22:57;21.00;;;9.40;;
64688;SDS011;62504;46.070;14.492;2023-11-19T05:25:25;19.83;;;9.93;;
64688;SDS011;62504;46.070;14.492;2023-11-19T05:27:51;20.73;;;9.60;;
64688;SDS011;62504;46.070;14.492;2023-11-19T05:30:17;20.03;;;9.73;;
64688;SDS011;62504;46.070;14.492;2023-11-19T05:32:43;22.00;;;9.90;;
64688;SDS011;62504;46.070;14.492;2023-11-19T05:35:08;22.73;;;9.90;;
64688;SDS011;62504;46.070;14.492;2023-11-19T05:37:34;21.77;;;10.47;;
64688;SDS011;62504;46.070;14.492;2023-11-19T05:40:00;23.53;;;11.77;;
64688;SDS011;62504;46.070;14.492;2023-11-19T05:42:28;22.37;;;9.93;;
64688;SDS011;62504;46.070;14.492;2023-11-19T05:44:54;23.07;;;9.87;;
64688;SDS011;62504;46.070;14.492;2023-11-19T05:47:19;20.87;;;10.13;;
64688;SDS011;62504;46.070;14.492;2023-11-19T05:49:45;26.43;;;10.03;;
64688;SDS011;62504;46.070;14.492;2023-11-19T05:52:10;21.53;;;9.27;;
64688;SDS011;62504;46.070;14.492;2023-11-19T05:54:38;19.87;;;9.13;;
64688;SDS011;62504;46.070;14.492;2023-11-19T05:57:04;18.63;;;8.63;;
64688;SDS011;62504;46.070;14.492;2023-11-19T05:59:30;18.63;;;8.77;;
64688;SDS011;62504;46.070;14.492;2023-11-19T06:01:58;19.70;;;9.33;;
64688;SDS011;62504;46.070;14.492;2023-11-19T06:04:23;22.87;;;9.60;;
64688;SDS011;62504;46.070;14.492;2023-11-19T06:06:49;21.60;;;10.23;;
64688;SDS011;62504;46.070;14.492;2023-11-19T06:09:14;20.93;;;9.43;;
64688;SDS011;62504;46.070;14.492;2023-11-19T06:11:40;23.40;;;9.50;;
64688;SDS011;62504;46.070;14.492;2023-11-19T06:14:06;18.97;;;9.03;;
64688;SDS011;62504;46.070;14.492;2023-11-19T06:16:32;20.30;;;9.03;;
64688;SDS011;62504;46.070;14.492;2023-11-19T06:18:58;20.57;;;9.60;;
64688;SDS011;62504;46.070;14.492;2023-11-19T06:21:23;20.40;;;9.10;;
64688;SDS011;62504;46.070;14.492;2023-11-19T06:23:50;21.17;;;9.67;;
64688;SDS011;62504;46.070;14.492;2023-11-19T06:26:17;24.00;;;8.60;;
64688;SDS011;62504;46.070;14.492;2023-11-19T06:28:43;19.37;;;8.90;;
64688;SDS011;62504;46.070;14.492;2023-11-19T06:31:09;17.87;;;8.87;;
64688;SDS011;62504;46.070;14.492;2023-11-19T06:33:34;21.17;;;8.57;;
64688;SDS011;62504;46.070;14.492;2023-11-19T06:36:00;18.90;;;8.87;;
64688;SDS011;62504;46.070;14.492;2023-11-19T06:38:26;20.07;;;9.03;;
64688;SDS011;62504;46.070;14.492;2023-11-19T06:40:51;21.43;;;9.43;;
64688;SDS011;62504;46.070;14.492;2023-11-19T06:43:17;19.27;;;8.53;;
64688;SDS011;62504;46.070;14.492;2023-11-19T06:45:43;22.50;;;9.40;;
64688;SDS011;62504;46.070;14.492;2023-11-19T06:48:08;17.27;;;8.53;;
64688;SDS011;62504;46.070;14.492;2023-11-19T06:50:34;17.70;;;8.90;;
64688;SDS011;62504;46.070;14.492;2023-11-19T06:53:00;20.93;;;9.00;;
64688;SDS011;62504;46.070;14.492;2023-11-19T06:55:26;19.77;;;9.00;;
64688;SDS011;62504;46.070;14.492;2023-11-19T06:57:52;18.70;;;8.73;;
64688;SDS011;62504;46.070;14.492;2023-11-19T07:00:17;21.37;;;9.27;;
64688;SDS011;62504;46.070;14.492;2023-11-19T07:02:43;24.57;;;9.80;;
64688;SDS011;62504;46.070;14.492;2023-11-19T07:05:09;26.73;;;9.83;;
64688;SDS011;62504;46.070;14.492;2023-11-19T07:07:37;20.20;;;10.07;;
64688;SDS011;62504;46.070;14.492;2023-11-19T07:10:03;20.30;;;9.67;;
64688;SDS011;62504;46.070;14.492;2023-11-19T07:12:29;20.10;;;9.23;;
64688;SDS011;62504;46.070;14.492;2023-11-19T07:14:56;19.77;;;9.13;;
64688;SDS011;62504;46.070;14.492;2023-11-19T07:17:21;20.83;;;10.03;;
64688;SDS011;62504;46.070;14.492;2023-11-19T07:19:49;20.37;;;9.40;;
64688;SDS011;62504;46.070;14.492;2023-11-19T07:22:16;18.93;;;9.10;;
64688;SDS011;62504;46.070;14.492;2023-11-19T07:24:41;19.07;;;9.77;;
64688;SDS011;62504;46.070;14.492;2023-11-19T07:27:08;25.43;;;11.37;;
64688;SDS011;62504;46.070;14.492;2023-11-19T07:29:34;25.23;;;10.43;;
64688;SDS011;62504;46.070;14.492;2023-11-19T07:32:03;24.23;;;9.90;;
64688;SDS011;62504;46.070;14.492;2023-11-19T07:34:30;25.90;;;10.37;;
64688;SDS011;62504;46.070;14.492;2023-11-19T07:36:55;23.37;;;10.57;;
64688;SDS011;62504;46.070;14.492;2023-11-19T07:39:27;22.60;;;11.00;;
64688;SDS011;62504;46.070;14.492;2023-11-19T07:41:53;19.60;;;9.87;;
64688;SDS011;62504;46.070;14.492;2023-11-19T07:44:19;18.33;;;9.77;;
64688;SDS011;62504;46.070;14.492;2023-11-19T07:46:46;21.90;;;10.57;;
64688;SDS011;62504;46.070;14.492;2023-11-19T07:49:13;21.33;;;10.90;;
64688;SDS011;62504;46.070;14.492;2023-11-19T07:51:39;21.33;;;10.57;;
64688;SDS011;62504;46.070;14.492;2023-11-19T07:54:04;24.03;;;10.43;;
64688;SDS011;62504;46.070;14.492;2023-11-19T07:56:31;26.90;;;10.90;;
64688;SDS011;62504;46.070;14.492;2023-11-19T07:58:59;22.10;;;10.83;;
64688;SDS011;62504;46.070;14.492;2023-11-19T08:01:25;21.80;;;10.30;;
64688;SDS011;62504;46.070;14.492;2023-11-19T08:03:50;24.37;;;11.67;;
64688;SDS011;62504;46.070;14.492;2023-11-19T08:06:16;31.00;;;13.17;;
64688;SDS011;62504;46.070;14.492;2023-11-19T08:08:42;30.73;;;12.40;;
64688;SDS011;62504;46.070;14.492;2023-11-19T08:11:08;32.27;;;14.13;;
64688;SDS011;62504;46.070;14.492;2023-11-19T08:13:33;24.83;;;11.93;;
64688;SDS011;62504;46.070;14.492;2023-11-19T08:15:59;22.60;;;10.83;;
64688;SDS011;62504;46.070;14.492;2023-11-19T08:18:24;23.80;;;11.03;;
64688;SDS011;62504;46.070;14.492;2023-11-19T08:20:50;25.73;;;11.77;;
64688;SDS011;62504;46.070;14.492;2023-11-19T08:23:18;24.13;;;11.80;;
64688;SDS011;62504;46.070;14.492;2023-11-19T08:25:44;26.63;;;12.87;;
64688;SDS011;62504;46.070;14.492;2023-11-19T08:28:10;29.03;;;12.97;;
64688;SDS011;62504;46.070;14.492;2023-11-19T08:30:36;26.73;;;12.83;;
64688;SDS011;62504;46.070;14.492;2023-11-19T08:33:01;21.20;;;11.33;;
64688;SDS011;62504;46.070;14.492;2023-11-19T08:35:32;23.93;;;11.60;;
64688;SDS011;62504;46.070;14.492;2023-11-19T08:37:58;26.93;;;11.30;;
64688;SDS011;62504;46.070;14.492;2023-11-19T08:40:24;22.50;;;10.70;;
64688;SDS011;62504;46.070;14.492;2023-11-19T08:42:51;26.17;;;11.60;;
64688;SDS011;62504;46.070;14.492;2023-11-19T08:45:16;21.57;;;10.93;;
64688;SDS011;62504;46.070;14.492;2023-11-19T08:47:42;25.40;;;11.37;;
64688;SDS011;62504;46.070;14.492;2023-11-19T08:50:10;22.30;;;11.33;;
64688;SDS011;62504;46.070;14.492;2023-11-19T08:52:36;28.23;;;13.77;;
64688;SDS011;62504;46.070;14.492;2023-11-19T08:55:02;26.33;;;12.40;;
64688;SDS011;62504;46.070;14.492;2023-11-19T08:57:30;26.73;;;12.63;;
64688;SDS011;62504;46.070;14.492;2023-11-19T08:59:59;21.90;;;11.57;;
64688;SDS011;62504;46.070;14.492;2023-11-19T09:02:24;19.77;;;10.10;;
64688;SDS011;62504;46.070;14.492;2023-11-19T09:04:50;22.53;;;10.57;;
64688;SDS011;62504;46.070;14.492;2023-11-19T09:07:16;21.87;;;10.87;;
64688;SDS011;62504;46.070;14.492;2023-11-19T09:09:42;21.00;;;11.23;;
64688;SDS011;62504;46.070;14.492;2023-11-19T09:12:07;21.70;;;11.63;;
64688;SDS011;62504;46.070;14.492;2023-11-19T09:14:33;23.37;;;12.23;;
64688;SDS011;62504;46.070;14.492;2023-11-19T09:16:59;27.33;;;13.07;;
64688;SDS011;62504;46.070;14.492;2023-11-19T09:19:25;19.93;;;11.10;;
64688;SDS011;62504;46.070;14.492;2023-11-19T09:21:54;21.93;;;12.00;;
64688;SDS011;62504;46.070;14.492;2023-11-19T09:24:19;21.77;;;11.67;;
64688;SDS011;62504;46.070;14.492;2023-11-19T09:26:45;27.07;;;13.07;;
64688;SDS011;62504;46.070;14.492;2023-11-19T09:29:11;28.37;;;13.60;;
64688;SDS011;62504;46.070;14.492;2023-11-19T09:31:40;24.87;;;12.67;;
64688;SDS011;62504;46.070;14.492;2023-11-19T09:34:06;25.33;;;12.93;;
64688;SDS011;62504;46.070;14.492;2023-11-19T09:36:31;25.90;;;12.50;;
64688;SDS011;62504;46.070;14.492;2023-11-19T09:38:57;26.03;;;13.23;;
64688;SDS011;62504;46.070;14.492;2023-11-19T09:41:25;29.13;;;13.80;;
64688;SDS011;62504;46.070;14.492;2023-11-19T09:43:53;25.87;;;13.30;;
64688;SDS011;62504;46.070;14.492;2023-11-19T09:46:19;30.17;;;13.70;;
64688;SDS011;62504;46.070;14.492;2023-11-19T09:48:46;25.60;;;13.00;;
64688;SDS011;62504;46.070;14.492;2023-11-19T09:51:13;27.60;;;13.57;;
64688;SDS011;62504;46.070;14.492;2023-11-19T09:53:39;23.63;;;13.00;;
64688;SDS011;62504;46.070;14.492;2023-11-19T09:56:05;24.03;;;12.40;;
64688;SDS011;62504;46.070;14.492;2023-11-19T09:58:33;24.70;;;12.27;;
64688;SDS011;62504;46.070;14.492;2023-11-19T10:00:59;24.47;;;12.10;;
64688;SDS011;62504;46.070;14.492;2023-11-19T10:03:26;25.80;;;12.50;;
64688;SDS011;62504;46.070;14.492;2023-11-19T10:05:54;21.23;;;12.07;;
64688;SDS011;62504;46.070;14.492;2023-11-19T10:08:21;24.10;;;11.70;;
64688;SDS011;62504;46.070;14.492;2023-11-19T10:10:47;24.27;;;13.13;;
64688;SDS011;62504;46.070;14.492;2023-11-19T10:13:13;26.53;;;13.83;;
64688;SDS011;62504;46.070;14.492;2023-11-19T10:15:39;21.93;;;12.30;;
64688;SDS011;62504;46.070;14.492;2023-11-19T10:18:06;24.03;;;12.30;;
64688;SDS011;62504;46.070;14.492;2023-11-19T10:20:41;24.00;;;11.47;;
64688;SDS011;62504;46.070;14.492;2023-11-19T10:23:08;20.90;;;11.33;;
64688;SDS011;62504;46.070;14.492;2023-11-19T10:25:34;23.53;;;11.40;;
64688;SDS011;62504;46.070;14.492;2023-11-19T10:28:00;24.57;;;11.17;;
64688;SDS011;62504;46.070;14.492;2023-11-19T10:30:26;22.67;;;10.90;;
64688;SDS011;62504;46.070;14.492;2023-11-19T10:35:57;24.50;;;11.80;;
64688;SDS011;62504;46.070;14.492;2023-11-19T10:38:24;23.53;;;11.17;;
64688;SDS011;62504;46.070;14.492;2023-11-19T10:40:51;24.70;;;12.10;;
64688;SDS011;62504;46.070;14.492;2023-11-19T10:43:17;21.33;;;10.57;;
64688;SDS011;62504;46.070;14.492;2023-11-19T10:45:44;18.83;;;10.00;;
64688;SDS011;62504;46.070;14.492;2023-11-19T10:48:10;22.23;;;10.67;;
64688;SDS011;62504;46.070;14.492;2023-11-19T10:50:38;19.60;;;10.63;;
64688;SDS011;62504;46.070;14.492;2023-11-19T10:53:10;21.27;;;11.10;;
64688;SDS011;62504;46.070;14.492;2023-11-19T10:55:40;24.50;;;10.87;;
64688;SDS011;62504;46.070;14.492;2023-11-19T10:58:08;25.57;;;11.37;;
64688;SDS011;62504;46.070;14.492;2023-11-19T11:03:20;35.97;;;16.13;;
64688;SDS011;62504;46.070;14.492;2023-11-19T11:05:50;32.37;;;16.73;;
64688;SDS011;62504;46.070;14.492;2023-11-19T11:08:17;22.33;;;10.77;;
64688;SDS011;62504;46.070;14.492;2023-11-19T11:10:45;23.47;;;11.03;;
64688;SDS011;62504;46.070;14.492;2023-11-19T11:13:13;19.07;;;10.13;;
64688;SDS011;62504;46.070;14.492;2023-11-19T11:15:39;19.17;;;10.00;;
64688;SDS011;62504;46.070;14.492;2023-11-19T11:18:08;20.90;;;10.37;;
64688;SDS011;62504;46.070;14.492;2023-11-19T11:20:34;22.13;;;10.50;;
64688;SDS011;62504;46.070;14.492;2023-11-19T11:30:54;24.50;;;10.90;;
64688;SDS011;62504;46.070;14.492;2023-11-19T11:36:13;20.93;;;11.00;;
64688;SDS011;62504;46.070;14.492;2023-11-19T11:38:50;19.37;;;10.07;;
64688;SDS011;62504;46.070;14.492;2023-11-19T11:41:18;23.10;;;11.00;;
64688;SDS011;62504;46.070;14.492;2023-11-19T11:43:49;20.70;;;10.63;;
64688;SDS011;62504;46.070;14.492;2023-11-19T11:49:08;23.80;;;12.03;;
64688;SDS011;62504;46.070;14.492;2023-11-19T11:54:11;19.40;;;11.03;;
64688;SDS011;62504;46.070;14.492;2023-11-19T11:56:42;20.97;;;11.33;;
64688;SDS011;62504;46.070;14.492;2023-11-19T11:59:37;20.57;;;11.07;;
64688;SDS011;62504;46.070;14.492;2023-11-19T12:02:09;23.33;;;11.47;;
64688;SDS011;62504;46.070;14.492;2023-11-19T12:04:36;20.93;;;10.70;;
64688;SDS011;62504;46.070;14.492;2023-11-19T12:09:32;20.50;;;10.57;;
64688;SDS011;62504;46.070;14.492;2023-11-19T12:20:01;22.03;;;10.77;;
64688;SDS011;62504;46.070;14.492;2023-11-19T12:22:30;23.40;;;10.67;;
64688;SDS011;62504;46.070;14.492;2023-11-19T12:24:56;23.07;;;11.43;;
64688;SDS011;62504;46.070;14.492;2023-11-19T12:27:22;22.90;;;11.30;;
64688;SDS011;62504;46.070;14.492;2023-11-19T12:29:48;21.53;;;11.50;;
64688;SDS011;62504;46.070;14.492;2023-11-19T12:32:14;22.50;;;11.07;;
64688;SDS011;62504;46.070;14.492;2023-11-19T12:34:40;22.87;;;11.93;;
64688;SDS011;62504;46.070;14.492;2023-11-19T12:37:05;24.63;;;12.23;;
64688;SDS011;62504;46.070;14.492;2023-11-19T12:39:32;21.60;;;11.37;;
64688;SDS011;62504;46.070;14.492;2023-11-19T12:41:58;22.00;;;11.60;;
64688;SDS011;62504;46.070;14.492;2023-11-19T12:44:26;22.20;;;12.70;;
64688;SDS011;62504;46.070;14.492;2023-11-19T12:47:02;22.00;;;12.00;;
64688;SDS011;62504;46.070;14.492;2023-11-19T12:49:36;23.03;;;12.20;;
64688;SDS011;62504;46.070;14.492;2023-11-19T12:52:02;25.80;;;13.07;;
64688;SDS011;62504;46.070;14.492;2023-11-19T12:54:37;27.17;;;13.30;;
64688;SDS011;62504;46.070;14.492;2023-11-19T12:57:05;22.50;;;12.40;;
64688;SDS011;62504;46.070;14.492;2023-11-19T12:59:31;23.97;;;12.93;;
64688;SDS011;62504;46.070;14.492;2023-11-19T13:01:57;23.40;;;12.53;;
64688;SDS011;62504;46.070;14.492;2023-11-19T13:04:23;20.20;;;12.00;;
64688;SDS011;62504;46.070;14.492;2023-11-19T13:06:53;20.63;;;12.10;;
64688;SDS011;62504;46.070;14.492;2023-11-19T13:09:25;20.33;;;12.17;;
64688;SDS011;62504;46.070;14.492;2023-11-19T13:11:52;21.63;;;12.50;;
64688;SDS011;62504;46.070;14.492;2023-11-19T13:14:19;22.93;;;13.30;;
64688;SDS011;62504;46.070;14.492;2023-11-19T13:16:45;22.43;;;12.57;;
64688;SDS011;62504;46.070;14.492;2023-11-19T13:19:12;23.87;;;12.47;;
64688;SDS011;62504;46.070;14.492;2023-11-19T13:21:38;23.27;;;12.47;;
64688;SDS011;62504;46.070;14.492;2023-11-19T13:24:08;22.13;;;12.30;;
64688;SDS011;62504;46.070;14.492;2023-11-19T13:26:33;22.07;;;12.67;;
64688;SDS011;62504;46.070;14.492;2023-11-19T13:29:03;22.37;;;12.50;;
64688;SDS011;62504;46.070;14.492;2023-11-19T13:31:29;23.07;;;12.80;;
64688;SDS011;62504;46.070;14.492;2023-11-19T13:33:55;22.63;;;12.77;;
64688;SDS011;62504;46.070;14.492;2023-11-19T13:36:21;24.07;;;13.30;;
64688;SDS011;62504;46.070;14.492;2023-11-19T13:38:47;23.87;;;12.97;;
64688;SDS011;62504;46.070;14.492;2023-11-19T13:41:12;22.10;;;12.73;;
64688;SDS011;62504;46.070;14.492;2023-11-19T13:43:39;21.23;;;12.03;;
64688;SDS011;62504;46.070;14.492;2023-11-19T13:46:05;23.43;;;12.83;;
64688;SDS011;62504;46.070;14.492;2023-11-19T13:48:31;20.70;;;12.13;;
64688;SDS011;62504;46.070;14.492;2023-11-19T13:50:57;24.00;;;13.10;;
64688;SDS011;62504;46.070;14.492;2023-11-19T13:53:23;21.70;;;12.27;;
64688;SDS011;62504;46.070;14.492;2023-11-19T13:55:49;22.83;;;12.40;;
64688;SDS011;62504;46.070;14.492;2023-11-19T13:58:15;26.03;;;14.53;;
64688;SDS011;62504;46.070;14.492;2023-11-19T14:00:41;30.43;;;16.50;;
64688;SDS011;62504;46.070;14.492;2023-11-19T14:03:07;33.27;;;17.77;;
64688;SDS011;62504;46.070;14.492;2023-11-19T14:05:33;30.83;;;16.20;;
64688;SDS011;62504;46.070;14.492;2023-11-19T14:07:58;24.20;;;13.17;;
64688;SDS011;62504;46.070;14.492;2023-11-19T14:10:24;26.63;;;14.10;;
64688;SDS011;62504;46.070;14.492;2023-11-19T14:12:50;26.17;;;13.73;;
64688;SDS011;62504;46.070;14.492;2023-11-19T14:15:15;20.40;;;11.60;;
64688;SDS011;62504;46.070;14.492;2023-11-19T14:17:44;11.50;;;6.10;;
64688;SDS011;62504;46.070;14.492;2023-11-19T14:20:10;8.47;;;3.80;;
64688;SDS011;62504;46.070;14.492;2023-11-19T14:22:40;5.37;;;2.77;;
64688;SDS011;62504;46.070;14.492;2023-11-19T14:25:07;4.50;;;2.17;;
64688;SDS011;62504;46.070;14.492;2023-11-19T14:27:36;4.37;;;2.20;;
64688;SDS011;62504;46.070;14.492;2023-11-19T14:30:04;3.40;;;2.33;;
64688;SDS011;62504;46.070;14.492;2023-11-19T14:32:30;3.17;;;2.03;;
64688;SDS011;62504;46.070;14.492;2023-11-19T14:34:56;3.67;;;2.17;;
64688;SDS011;62504;46.070;14.492;2023-11-19T14:37:22;4.20;;;2.30;;
64688;SDS011;62504;46.070;14.492;2023-11-19T14:39:48;4.47;;;2.50;;
64688;SDS011;62504;46.070;14.492;2023-11-19T14:42:15;4.40;;;2.40;;
64688;SDS011;62504;46.070;14.492;2023-11-19T14:44:42;3.03;;;2.13;;
64688;SDS011;62504;46.070;14.492;2023-11-19T14:47:07;4.67;;;2.60;;